Terminal Aerodrome Forecast
Issued by NWS Omaha/Valley, NE

Home | Current Version | Previous Version | Text Only | Print | Product List | Glossary Off
Versions: 1 2 3 4 5 6 7 8 9 10 11 12 13 14 15 16 17 18 19 20 21 22 23 24 25 26 27 28 29 30 31 32 33 34 35 36 37 38 39

000
FTUS43 KOAX 110401 AAC
TAFOFK
TAF AMD
KOFK 110401Z 1104/1124 06006KT P6SM SCT009 OVC020
     FM110900 VRB05KT 6SM BR OVC015
      TEMPO 1110/1114 3SM BR OVC008
     FM111600 16010KT 6SM BR OVC015 PROB30 1116/1122 3SM -SN
     FM112300 18012KT P6SM OVC025=

USA.gov is the U.S. government's official web portal to all federal, state and local government web resources and services.